Big Bear Station Historical Data
Daily Summary for February 24, 2017 Units:  English    Metric   Both
« Previous Day
Next Day »
Daily Weekly Monthly Yearly Custom
  High: Low: Average:
Temperature: 43.0 °F 16.7 °F 28.1 °F
Dew Point: 25.7 °F 0.9 °F 13.7 °F
Humidity: 85 % 22 % 59 %
Wind Speed: 6.8 mph 0.0 mph 1.4 mph
Wind Gust: -999.0 mph - -
Wind:- - WSW
Pressure: 30.12 in 30.01 in -
Precipitation: 0.00 in    
Historical Graphs
 
 
Tabular Data for February 24, 2017
Time Temperature Dew Point Pressure Wind Wind Speed Wind Gust Humidity Rainfall Rate (Hourly)
00:01 20.1 °F 16.0 °F 30.01 in Calm   -999.0 mph 84 % 0 in
00:17 20.8 °F 17.0 °F 30.02 in NW 1.7 mph -999.0 mph 85 % 0 in
00:32 20.3 °F 15.7 °F 30.02 in Calm   -999.0 mph 82 % 0 in
00:48 19.9 °F 15.0 °F 30.02 in South 2.7 mph -999.0 mph 81 % 0 in
01:03 19.9 °F 15.6 °F 30.02 in NW 1.7 mph -999.0 mph 83 % 0 in
01:18 21.0 °F 16.1 °F 30.02 in Calm   -999.0 mph 81 % 0 in
01:33 19.9 °F 14.1 °F 30.02 in SE 1.7 mph -999.0 mph 78 % 0 in
01:48 18.9 °F 13.8 °F 30.02 in Calm   -999.0 mph 80 % 0 in
02:04 18.5 °F 13.4 °F 30.01 in Calm   -999.0 mph 80 % 0 in
02:19 18.0 °F 13.2 °F 30.02 in Calm   -999.0 mph 81 % 0 in
02:34 18.5 °F 13.4 °F 30.02 in Calm   -999.0 mph 80 % 0 in
02:49 17.8 °F 13.0 °F 30.02 in Calm   -999.0 mph 81 % 0 in
03:04 18.0 °F 12.6 °F 30.02 in Calm   -999.0 mph 79 % 0 in
03:20 18.0 °F 12.0 °F 30.01 in Calm   -999.0 mph 77 % 0 in
03:35 17.8 °F 10.9 °F 30.01 in Calm   -999.0 mph 74 % 0 in
03:50 17.2 °F 10.6 °F 30.01 in South 1.7 mph -999.0 mph 75 % 0 in
04:05 17.1 °F 10.5 °F 30.01 in SSE 1.1 mph -999.0 mph 75 % 0 in
04:20 17.1 °F 12.0 °F 30.02 in Calm   -999.0 mph 80 % 0 in
04:36 16.7 °F 11.9 °F 30.02 in SSE 2.2 mph -999.0 mph 81 % 0 in
04:51 16.9 °F 11.5 °F 30.02 in Calm   -999.0 mph 79 % 0 in
05:06 17.8 °F 11.8 °F 30.03 in SSE 2.7 mph -999.0 mph 77 % 0 in
05:21 17.4 °F 12.8 °F 30.03 in Calm   -999.0 mph 82 % 0 in
05:37 18.0 °F 14.0 °F 30.03 in Calm   -999.0 mph 84 % 0 in
05:52 17.4 °F 10.8 °F 30.03 in Calm   -999.0 mph 75 % 0 in
06:07 17.2 °F 7.4 °F 30.04 in Calm   -999.0 mph 65 % 0 in
06:22 18.1 °F 7.6 °F 30.04 in Calm   -999.0 mph 63 % 0 in
06:37 17.6 °F 7.5 °F 30.04 in Calm   -999.0 mph 64 % 0 in
06:53 18.1 °F 10.0 °F 30.04 in Calm   -999.0 mph 70 % 0 in
07:08 19.0 °F 8.5 °F 30.05 in Calm   -999.0 mph 63 % 0 in
07:23 20.8 °F 6.8 °F 30.05 in SSE 2.7 mph -999.0 mph 54 % 0 in
07:38 22.6 °F 6.7 °F 30.06 in SSW 2.7 mph -999.0 mph 50 % 0 in
07:53 24.8 °F 4.9 °F 30.06 in North 2.7 mph -999.0 mph 42 % 0 in
08:09 26.8 °F 6.8 °F 30.07 in SSW 1.7 mph -999.0 mph 42 % 0 in
08:24 29.1 °F 4.2 °F 30.07 in South 2.2 mph -999.0 mph 34 % 0 in
08:39 32.0 °F 0.9 °F 30.07 in Calm   -999.0 mph 26 % 0 in
08:54 33.6 °F 3.9 °F 30.07 in South 1.7 mph -999.0 mph 28 % 0 in
09:09 33.8 °F 4.1 °F 30.07 in WSW 2.2 mph -999.0 mph 28 % 0 in
09:25 34.7 °F 3.3 °F 30.08 in WNW 1.7 mph -999.0 mph 26 % 0 in
09:40 35.2 °F 3.7 °F 30.08 in NW 2.2 mph -999.0 mph 26 % 0 in
09:55 36.5 °F 8.0 °F 30.09 in NW 2.7 mph -999.0 mph 30 % 0 in
10:11 37.9 °F 6.0 °F 30.09 in North 4.7 mph -999.0 mph 26 % 0 in
10:26 38.3 °F 4.6 °F 30.09 in NNE 1.7 mph -999.0 mph 24 % 0 in
10:41 39.7 °F 8.4 °F 30.09 in North 3.7 mph -999.0 mph 27 % 0 in
10:56 40.3 °F 4.4 °F 30.10 in East 3.2 mph -999.0 mph 22 % 0 in
11:12 41.2 °F 8.0 °F 30.09 in WNW 3.2 mph -999.0 mph 25 % 0 in
11:28 41.0 °F 7.8 °F 30.09 in WNW 3.7 mph -999.0 mph 25 % 0 in
11:43 41.5 °F 6.4 °F 30.09 in NNE 4.2 mph -999.0 mph 23 % 0 in
11:58 41.4 °F 10.7 °F 30.09 in NW 4.7 mph -999.0 mph 28 % 0 in
12:13 42.3 °F 15.2 °F 30.09 in North 5.3 mph -999.0 mph 33 % 0 in
12:29 42.3 °F 13.0 °F 30.09 in NW 5.8 mph -999.0 mph 30 % 0 in
12:44 42.4 °F 12.4 °F 30.09 in WSW 2.7 mph -999.0 mph 29 % 0 in
12:59 43.0 °F 12.9 °F 30.08 in WNW 2.2 mph -999.0 mph 29 % 0 in
13:15 42.4 °F 9.0 °F 30.08 in NNW 6.8 mph -999.0 mph 25 % 0 in
13:30 42.4 °F 13.1 °F 30.08 in NW 2.7 mph -999.0 mph 30 % 0 in
13:46 41.2 °F 15.6 °F 30.08 in WNW 1.7 mph -999.0 mph 35 % 0 in
14:01 40.5 °F 12.2 °F 30.08 in NNW 5.3 mph -999.0 mph 31 % 0 in
14:17 40.3 °F 15.4 °F 30.08 in North 5.3 mph -999.0 mph 36 % 0 in
14:33 41.0 °F 13.4 °F 30.08 in WNW 4.2 mph -999.0 mph 32 % 0 in
14:48 40.3 °F 16.1 °F 30.08 in NNE 3.7 mph -999.0 mph 37 % 0 in
15:03 40.6 °F 15.1 °F 30.08 in WNW 2.2 mph -999.0 mph 35 % 0 in
15:19 39.7 °F 17.9 °F 30.08 in NNW 3.7 mph -999.0 mph 41 % 0 in
15:34 38.1 °F 25.4 °F 30.08 in NW 4.2 mph -999.0 mph 60 % 0 in
15:49 37.2 °F 23.4 °F 30.08 in NW 2.7 mph -999.0 mph 57 % 0 in
16:05 36.0 °F 25.7 °F 30.09 in NW 2.7 mph -999.0 mph 66 % 0 in
16:21 35.6 °F 25.4 °F 30.09 in NW 1.7 mph -999.0 mph 66 % 0 in
16:36 35.1 °F 25.6 °F 30.09 in Calm   -999.0 mph 68 % 0 in
16:51 34.0 °F 25.6 °F 30.09 in West 1.7 mph -999.0 mph 71 % 0 in
17:06 33.4 °F 25.7 °F 30.10 in WNW 1.7 mph -999.0 mph 73 % 0 in
17:22 32.5 °F 24.5 °F 30.10 in Calm   -999.0 mph 72 % 0 in
17:37 31.3 °F 24.3 °F 30.10 in Calm   -999.0 mph 75 % 0 in
17:52 30.2 °F 23.9 °F 30.10 in Calm   -999.0 mph 77 % 0 in
18:07 29.1 °F 23.4 °F 30.10 in Calm   -999.0 mph 79 % 0 in
18:23 28.4 °F 22.7 °F 30.10 in Calm   -999.0 mph 79 % 0 in
18:38 27.9 °F 22.5 °F 30.10 in Calm   -999.0 mph 80 % 0 in
18:53 27.9 °F 22.5 °F 30.10 in Calm   -999.0 mph 80 % 0 in
19:08 26.8 °F 20.9 °F 30.10 in Calm   -999.0 mph 78 % 0 in
19:23 25.9 °F 19.7 °F 30.11 in Calm   -999.0 mph 77 % 0 in
19:39 25.5 °F 19.0 °F 30.11 in Calm   -999.0 mph 76 % 0 in
19:54 25.5 °F 19.9 °F 30.12 in Calm   -999.0 mph 79 % 0 in
20:09 24.8 °F 18.3 °F 30.12 in Calm   -999.0 mph 76 % 0 in
20:24 24.4 °F 17.0 °F 30.12 in Calm   -999.0 mph 73 % 0 in
20:39 23.7 °F 16.3 °F 30.12 in Calm   -999.0 mph 73 % 0 in
20:55 23.7 °F 15.7 °F 30.12 in Calm   -999.0 mph 71 % 0 in
21:10 23.9 °F 16.5 °F 30.12 in Calm   -999.0 mph 73 % 0 in
21:25 23.9 °F 16.5 °F 30.12 in Calm   -999.0 mph 73 % 0 in
21:40 23.7 °F 15.7 °F 30.12 in Calm   -999.0 mph 71 % 0 in
21:55 23.0 °F 13.3 °F 30.12 in Calm   -999.0 mph 66 % 0 in
22:11 22.5 °F 15.5 °F 30.12 in Calm   -999.0 mph 74 % 0 in
22:26 23.0 °F 13.7 °F 30.11 in Calm   -999.0 mph 67 % 0 in
22:41 24.3 °F 13.9 °F 30.11 in Calm   -999.0 mph 64 % 0 in
22:56 25.2 °F 10.9 °F 30.11 in SW 3.2 mph -999.0 mph 54 % 0 in
23:11 26.2 °F 11.8 °F 30.11 in Calm   -999.0 mph 54 % 0 in
23:27 25.9 °F 11.1 °F 30.11 in Calm   -999.0 mph 53 % 0 in
23:42 26.2 °F 11.4 °F 30.11 in Calm   -999.0 mph 53 % 0 in
23:57 26.1 °F 11.7 °F 30.11 in Calm   -999.0 mph 54 % 0 in
Big Bear CA Weather
Compliments of Weather Underground - 1.5 mb